createdAt,value
2019-04-11T00:01:16.361Z,13.50
2019-04-11T00:03:45.970Z,13.55
2019-04-11T00:06:15.585Z,13.55
2019-04-11T00:08:45.886Z,14.05
2019-04-11T00:11:15.674Z,13.20
2019-04-11T00:13:45.199Z,14.95
2019-04-11T00:16:15.228Z,13.30
2019-04-11T00:18:45.006Z,12.35
2019-04-11T00:21:14.842Z,12.50
2019-04-11T00:23:44.160Z,13.13
2019-04-11T00:26:13.883Z,12.93
2019-04-11T00:28:43.282Z,14.10
2019-04-11T00:31:14.702Z,13.18
2019-04-11T00:33:44.574Z,11.63
2019-04-11T00:36:14.497Z,13.18
2019-04-11T00:38:44.102Z,14.23
2019-04-11T00:41:13.437Z,13.80
2019-04-11T00:43:44.202Z,12.80
2019-04-11T00:46:13.718Z,12.73
2019-04-11T00:48:43.913Z,13.50
2019-04-11T00:51:13.930Z,10.90
2019-04-11T00:53:44.436Z,12.30
2019-04-11T00:56:13.948Z,11.78
2019-04-11T00:58:43.564Z,11.97
2019-04-11T01:01:13.496Z,12.95
2019-04-11T01:03:43.262Z,13.30
2019-04-11T01:06:12.607Z,11.48
2019-04-11T01:08:42.011Z,12.82
2019-04-11T01:11:11.983Z,12.15
2019-04-11T01:13:49.163Z,12.55
2019-04-11T01:16:31.318Z,12.58
2019-04-11T01:19:00.598Z,11.40
2019-04-11T01:21:30.630Z,12.65
2019-04-11T01:24:00.280Z,11.55
2019-04-11T01:26:29.796Z,12.05
2019-04-11T01:28:59.127Z,12.30
2019-04-11T01:31:30.071Z,11.10
2019-04-11T01:34:00.189Z,12.28
2019-04-11T01:36:29.847Z,10.95
2019-04-11T01:39:03.467Z,11.48
2019-04-11T01:41:32.760Z,11.30
2019-04-11T01:44:04.167Z,11.33
2019-04-11T01:46:34.015Z,12.90
2019-04-11T01:49:06.087Z,11.95
2019-04-11T01:51:35.915Z,10.75
2019-04-11T01:54:05.745Z,11.43
2019-04-11T01:56:35.085Z,11.35
2019-04-11T01:59:04.929Z,10.30
2019-04-11T02:01:36.901Z,11.88
2019-04-11T02:04:24.114Z,10.80
2019-04-11T02:06:54.125Z,10.82
2019-04-11T02:09:24.191Z,10.85
2019-04-11T02:11:54.053Z,11.40
2019-04-11T02:14:24.151Z,11.12
2019-04-11T02:16:53.707Z,10.90
2019-04-11T02:19:23.888Z,9.83
2019-04-11T02:21:54.971Z,12.18
2019-04-11T02:24:38.082Z,11.83
2019-04-11T02:27:19.083Z,10.80
2019-04-11T02:29:48.883Z,10.43
2019-04-11T02:32:22.535Z,11.10
2019-04-11T02:34:52.360Z,10.55
2019-04-11T02:37:21.945Z,10.53
2019-04-11T02:39:53.523Z,11.03
2019-04-11T02:42:23.374Z,10.48
2019-04-11T02:45:09.238Z,9.23
2019-04-11T02:47:27.701Z,10.48
2019-04-11T02:49:55.257Z,10.15
2019-04-11T02:52:25.468Z,11.55
2019-04-11T02:54:56.896Z,9.30
2019-04-11T02:57:26.533Z,10.98
2019-04-11T02:59:56.495Z,9.70
2019-04-11T03:02:26.680Z,10.32
2019-04-11T03:04:56.644Z,9.95
2019-04-11T03:07:26.468Z,9.88
2019-04-11T03:09:56.595Z,9.13
2019-04-11T03:12:27.560Z,9.55
2019-04-11T03:15:21.307Z,9.88
2019-04-11T03:17:34.119Z,9.48
2019-04-11T03:20:13.223Z,9.65
2019-04-11T03:22:32.158Z,9.25
2019-04-11T03:25:03.116Z,9.83
2019-04-11T03:27:34.760Z,8.68
2019-04-11T03:30:09.770Z,8.98
2019-04-11T03:33:25.017Z,10.38
2019-04-11T03:35:59.573Z,9.83
2019-04-11T03:37:58.885Z,9.50
2019-04-11T03:40:25.998Z,9.20
2019-04-11T03:42:55.512Z,8.20
2019-04-11T03:45:32.855Z,8.50
2019-04-11T03:48:02.434Z,9.08
2019-04-11T03:50:19.626Z,9.00
2019-04-11T03:52:49.328Z,8.25
2019-04-11T03:55:19.355Z,8.15
2019-04-11T03:57:51.373Z,9.95
2019-04-11T04:00:21.660Z,9.30
2019-04-11T04:02:52.529Z,8.53
2019-04-11T04:05:23.622Z,8.18
2019-04-11T04:07:55.017Z,8.55
2019-04-11T04:10:25.943Z,8.35
2019-04-11T04:12:55.968Z,9.18
2019-04-11T04:15:47.230Z,9.10
2019-04-11T04:18:08.019Z,7.80
2019-04-11T04:20:51.039Z,8.23
2019-04-11T04:23:21.880Z,7.47
2019-04-11T04:25:51.690Z,8.40
2019-04-11T04:28:21.866Z,7.55
2019-04-11T04:30:53.697Z,7.50
2019-04-11T04:33:23.752Z,7.28
2019-04-11T04:35:53.364Z,7.90
2019-04-11T04:38:23.985Z,8.05
2019-04-11T04:41:13.559Z,7.97
2019-04-11T04:43:29.068Z,7.80
2019-04-11T04:46:20.396Z,7.92
2019-04-11T04:48:31.438Z,7.08
2019-04-11T04:51:07.309Z,9.03
2019-04-11T04:53:33.028Z,9.30
2019-04-11T04:56:02.787Z,7.87
2019-04-11T04:58:33.915Z,8.48
2019-04-11T05:01:05.755Z,8.50
2019-04-11T05:03:34.705Z,7.55
2019-04-11T05:06:04.515Z,7.67
2019-04-11T05:08:34.723Z,8.85
2019-04-11T05:11:04.661Z,7.70
2019-04-11T05:13:34.497Z,7.33
2019-04-11T05:16:12.883Z,8.73
2019-04-11T05:18:36.194Z,8.65
2019-04-11T05:21:05.932Z,7.53
2019-04-11T05:23:35.361Z,8.20
2019-04-11T05:26:04.934Z,8.63
2019-04-11T05:28:35.253Z,7.92
2019-04-11T05:31:05.968Z,8.48
2019-04-11T05:33:35.351Z,7.62
2019-04-11T05:36:04.618Z,7.90
2019-04-11T05:38:33.936Z,8.23
2019-04-11T05:41:04.264Z,8.60
2019-04-11T05:43:37.253Z,7.67
2019-04-11T05:46:22.819Z,7.72
2019-04-11T05:48:47.231Z,7.42
2019-04-11T05:51:21.177Z,8.23
2019-04-11T05:53:49.900Z,8.25
2019-04-11T05:56:20.768Z,8.78
2019-04-11T05:58:53.491Z,7.70
2019-04-11T06:01:36.544Z,7.22
2019-04-11T06:04:07.899Z,8.88
2019-04-11T06:06:40.209Z,7.85
2019-04-11T06:09:16.133Z,7.58
2019-04-11T06:11:55.036Z,8.33
2019-04-11T06:14:28.136Z,8.63
2019-04-11T06:16:59.361Z,7.60
2019-04-11T06:19:33.442Z,8.30
2019-04-11T06:22:04.616Z,9.35
2019-04-11T06:24:41.100Z,7.58
2019-04-11T06:27:18.067Z,7.58
2019-04-11T06:29:52.975Z,8.58
2019-04-11T06:32:34.043Z,9.03
2019-04-11T06:35:24.039Z,8.33
2019-04-11T06:38:04.130Z,8.95
2019-04-11T06:40:35.059Z,8.43
2019-04-11T06:43:05.975Z,8.25
2019-04-11T06:45:46.098Z,8.43
2019-04-11T06:48:24.537Z,9.60
2019-04-11T06:50:55.610Z,9.43
2019-04-11T06:53:26.622Z,9.38
2019-04-11T06:55:57.543Z,8.50
2019-04-11T06:58:31.830Z,8.60
2019-04-11T07:01:03.527Z,9.30
2019-04-11T07:03:38.324Z,10.00
2019-04-11T07:06:09.514Z,9.60
2019-04-11T07:08:56.867Z,8.48
2019-04-11T07:11:43.091Z,8.48
2019-04-11T07:14:20.416Z,9.08
2019-04-11T07:17:09.578Z,9.50
2019-04-11T07:19:47.933Z,9.00
2019-04-11T07:22:35.394Z,7.53
2019-04-11T07:25:10.407Z,8.28
2019-04-11T07:27:41.330Z,7.95
2019-04-11T07:30:19.254Z,9.23
2019-04-11T07:32:48.931Z,7.00
2019-04-11T07:35:22.953Z,8.93
2019-04-11T07:37:53.281Z,7.92
2019-04-11T07:40:31.432Z,8.28
2019-04-11T07:43:08.184Z,8.10
2019-04-11T07:45:37.691Z,7.50
2019-04-11T07:48:10.875Z,7.12
2019-04-11T07:50:40.468Z,6.62
2019-04-11T07:53:11.315Z,7.25
2019-04-11T07:55:42.241Z,6.65
2019-04-11T07:58:22.338Z,7.37
2019-04-11T08:01:08.582Z,7.80
2019-04-11T08:03:57.981Z,6.55
2019-04-11T08:06:45.676Z,6.47
2019-04-11T08:09:33.502Z,7.70
2019-04-11T08:12:04.605Z,7.20
2019-04-11T08:14:35.503Z,7.03
2019-04-11T08:17:07.250Z,6.87
2019-04-11T08:19:57.479Z,6.62
2019-04-11T08:22:35.018Z,6.75
2019-04-11T08:25:24.952Z,6.12
2019-04-11T08:28:02.359Z,6.05
2019-04-11T08:30:39.912Z,6.85
2019-04-11T08:33:10.720Z,7.58
2019-04-11T08:35:55.199Z,5.83
2019-04-11T08:38:26.651Z,6.58
2019-04-11T08:41:01.058Z,5.80
2019-04-11T08:43:35.233Z,6.28
2019-04-11T08:46:22.598Z,6.55
2019-04-11T08:49:05.666Z,5.75
2019-04-11T08:51:35.850Z,5.75
2019-04-11T08:54:23.810Z,5.60
2019-04-11T08:56:53.608Z,5.22
2019-04-11T08:59:41.780Z,6.30
2019-04-11T09:02:11.431Z,5.62
2019-04-11T09:05:04.825Z,5.55
2019-04-11T09:07:33.793Z,5.60
2019-04-11T09:10:22.131Z,5.55
2019-04-11T09:12:58.782Z,5.75
2019-04-11T09:15:29.718Z,6.08
2019-04-11T09:18:04.681Z,5.90
2019-04-11T09:20:47.698Z,7.00
2019-04-11T09:23:17.655Z,5.70
2019-04-11T09:26:01.557Z,5.65
2019-04-11T09:28:35.697Z,5.55
2019-04-11T09:31:19.428Z,5.90
2019-04-11T09:34:06.734Z,5.60
2019-04-11T09:36:38.716Z,5.62
2019-04-11T09:39:28.793Z,6.37
2019-04-11T09:42:00.910Z,5.55
2019-04-11T09:44:47.169Z,6.45
2019-04-11T09:47:22.074Z,6.12
2019-04-11T09:50:09.784Z,5.25
2019-04-11T09:52:49.795Z,6.20
2019-04-11T09:55:39.593Z,5.60
2019-04-11T09:58:28.418Z,7.20
2019-04-11T10:01:14.399Z,7.10
2019-04-11T10:03:45.148Z,6.35
2019-04-11T10:06:19.455Z,6.25
2019-04-11T10:08:51.239Z,6.47
2019-04-11T10:11:38.080Z,5.10
2019-04-11T10:14:09.363Z,6.00
2019-04-11T10:16:44.336Z,6.58
2019-04-11T10:19:22.074Z,6.20
2019-04-11T10:22:09.267Z,5.90
2019-04-11T10:24:56.828Z,6.50
2019-04-11T10:27:33.979Z,6.15
2019-04-11T10:30:22.481Z,6.60
2019-04-11T10:32:57.272Z,6.75
2019-04-11T10:35:28.378Z,5.65
2019-04-11T10:37:58.226Z,5.80
2019-04-11T10:40:44.216Z,5.60
2019-04-11T10:43:14.187Z,6.35
2019-04-11T10:45:45.116Z,6.47
2019-04-11T10:48:15.828Z,5.33
2019-04-11T10:50:46.967Z,5.47
2019-04-11T10:53:16.682Z,6.28
2019-04-11T10:55:51.815Z,6.20
2019-04-11T10:58:22.742Z,6.45
2019-04-11T11:01:05.792Z,5.17
2019-04-11T11:03:43.059Z,5.90
2019-04-11T11:06:14.220Z,5.75
2019-04-11T11:08:53.947Z,6.15
2019-04-11T11:11:28.336Z,5.70
2019-04-11T11:14:15.806Z,4.85
2019-04-11T11:16:56.782Z,5.25
2019-04-11T11:19:45.705Z,5.12
2019-04-11T11:22:16.730Z,5.50
2019-04-11T11:25:00.143Z,5.53
2019-04-11T11:27:30.433Z,5.37
2019-04-11T11:30:18.752Z,5.42
2019-04-11T11:32:48.243Z,5.03
2019-04-11T11:35:26.061Z,5.60
2019-04-11T11:37:53.910Z,6.58
2019-04-11T11:40:42.673Z,5.12
2019-04-11T11:43:16.970Z,5.33
2019-04-11T11:46:04.314Z,5.75
2019-04-11T11:48:53.723Z,5.65
2019-04-11T11:51:26.615Z,5.85
2019-04-11T11:53:55.477Z,4.70
2019-04-11T11:56:24.766Z,5.47
2019-04-11T11:59:11.317Z,5.33
2019-04-11T12:01:50.964Z,5.12
2019-04-11T12:04:40.439Z,5.85
2019-04-11T12:07:12.527Z,5.40
2019-04-11T12:09:55.727Z,5.95
2019-04-11T12:12:38.438Z,6.12
2019-04-11T12:15:20.947Z,6.05
2019-04-11T12:18:09.543Z,5.72
2019-04-11T12:20:44.977Z,5.70
2019-04-11T12:23:44.764Z,5.20
2019-04-11T12:26:05.391Z,5.47
2019-04-11T12:28:38.460Z,5.58
2019-04-11T12:31:09.357Z,6.58
2019-04-11T12:33:57.579Z,6.25
2019-04-11T12:36:28.838Z,6.17
2019-04-11T12:39:16.376Z,5.80
2019-04-11T12:41:50.207Z,6.47
2019-04-11T12:44:30.495Z,6.37
2019-04-11T12:47:01.558Z,5.87
2019-04-11T12:49:35.434Z,6.37
2019-04-11T12:52:22.538Z,6.20
2019-04-11T12:54:53.680Z,7.00
2019-04-11T12:57:24.619Z,7.10
2019-04-11T13:00:11.832Z,7.33
2019-04-11T13:03:00.540Z,5.55
2019-04-11T13:05:35.398Z,6.30
2019-04-11T13:08:22.471Z,6.72
2019-04-11T13:10:51.751Z,7.20
2019-04-11T13:13:37.978Z,5.78
2019-04-11T13:16:12.217Z,6.92
2019-04-11T13:18:47.498Z,5.90
2019-04-11T13:21:24.132Z,5.90
2019-04-11T13:23:55.385Z,6.12
2019-04-11T13:26:42.720Z,6.25
2019-04-11T13:29:29.974Z,6.17
2019-04-11T13:32:07.318Z,6.15
2019-04-11T13:34:38.255Z,6.97
2019-04-11T13:37:18.166Z,7.05
2019-04-11T13:39:49.096Z,5.97
2019-04-11T13:42:32.177Z,6.28
2019-04-11T13:45:01.535Z,6.50
2019-04-11T13:47:44.323Z,6.40
2019-04-11T13:50:16.818Z,6.22
2019-04-11T13:53:02.980Z,7.45
2019-04-11T13:55:32.266Z,6.45
2019-04-11T13:58:19.331Z,7.92
2019-04-11T14:00:48.622Z,6.25
2019-04-11T14:03:19.530Z,7.05
2019-04-11T14:05:50.253Z,6.62
2019-04-11T14:08:33.483Z,6.17
2019-04-11T14:11:07.050Z,6.90
2019-04-11T14:13:37.973Z,7.12
2019-04-11T14:16:10.172Z,6.87
2019-04-11T14:18:42.251Z,6.15
2019-04-11T14:21:31.239Z,6.05
2019-04-11T14:24:11.379Z,6.28
2019-04-11T14:26:46.698Z,6.05
2019-04-11T14:29:17.623Z,5.72
2019-04-11T14:31:57.579Z,6.65
2019-04-11T14:34:31.404Z,6.75
2019-04-11T14:37:02.652Z,5.62
2019-04-11T14:39:39.671Z,6.33
2019-04-11T14:42:12.038Z,6.20
2019-04-11T14:44:42.235Z,6.33
2019-04-11T14:47:29.419Z,6.47
2019-04-11T14:50:05.744Z,6.45
2019-04-11T14:52:46.490Z,6.40
2019-04-11T14:55:13.504Z,6.75
2019-04-11T14:58:01.018Z,6.62
2019-04-11T15:00:31.946Z,6.12
2019-04-11T15:03:02.875Z,6.45
2019-04-11T15:05:36.627Z,9.50
2019-04-11T15:08:07.095Z,6.30
2019-04-11T15:10:48.190Z,6.83
2019-04-11T15:13:19.771Z,7.25
2019-04-11T15:16:02.595Z,6.60
2019-04-11T15:18:34.067Z,6.12
2019-04-11T15:21:07.659Z,5.97
2019-04-11T15:23:38.586Z,7.03
2019-04-11T15:26:18.488Z,6.83
2019-04-11T15:28:49.703Z,7.45
2019-04-11T15:31:39.286Z,6.25
2019-04-11T15:34:05.476Z,6.05
2019-04-11T15:36:36.390Z,6.72
2019-04-11T15:39:24.895Z,6.90
2019-04-11T15:42:01.794Z,6.40
2019-04-11T15:44:39.250Z,6.03
2019-04-11T15:47:10.158Z,6.20
2019-04-11T15:49:47.078Z,5.95
2019-04-11T15:52:17.658Z,6.15
2019-04-11T15:54:51.719Z,6.12
2019-04-11T15:57:34.632Z,5.78
2019-04-11T16:00:08.267Z,6.50
2019-04-11T16:02:39.680Z,5.97
2019-04-11T16:05:13.723Z,6.22
2019-04-11T16:08:01.447Z,6.42
2019-04-11T16:10:32.378Z,5.90
2019-04-11T16:13:06.246Z,6.70
2019-04-11T16:15:36.722Z,6.17
2019-04-11T16:18:19.802Z,6.22
2019-04-11T16:20:51.629Z,5.75
2019-04-11T16:23:26.284Z,6.00
2019-04-11T16:25:56.362Z,6.05
2019-04-11T16:28:44.082Z,6.50
2019-04-11T16:31:13.430Z,5.60
2019-04-11T16:33:46.264Z,6.30
2019-04-11T16:36:17.209Z,5.70
2019-04-11T16:38:49.849Z,5.95
2019-04-11T16:41:36.750Z,6.40
2019-04-11T16:44:13.366Z,5.75
2019-04-11T16:47:00.735Z,6.58
2019-04-11T16:49:30.065Z,6.40
2019-04-11T16:51:59.363Z,6.08
2019-04-11T16:54:28.647Z,6.72
2019-04-11T16:56:57.935Z,6.62
2019-04-11T16:59:27.516Z,6.80
2019-04-11T17:01:57.618Z,6.00
2019-04-11T17:04:26.962Z,6.22
2019-04-11T17:07:14.381Z,6.75
2019-04-11T17:09:48.039Z,6.40
2019-04-11T17:12:17.318Z,6.95
2019-04-11T17:14:46.618Z,6.33
2019-04-11T17:17:15.907Z,6.20
2019-04-11T17:19:45.467Z,6.62
2019-04-11T17:22:16.844Z,6.72
2019-04-11T17:24:48.122Z,6.95
2019-04-11T17:27:17.051Z,6.40
2019-04-11T17:29:46.340Z,6.33
2019-04-11T17:32:15.611Z,6.45
2019-04-11T17:34:45.159Z,5.97
2019-04-11T17:37:14.763Z,7.45
2019-04-11T17:39:44.058Z,6.75
2019-04-11T17:42:13.977Z,7.30
2019-04-11T17:44:43.397Z,6.70
2019-04-11T17:47:12.654Z,6.65
2019-04-11T17:49:41.927Z,6.33
2019-04-11T17:52:11.493Z,5.95
2019-04-11T17:54:40.759Z,5.67
2019-04-11T17:57:10.043Z,5.25
2019-04-11T17:59:39.308Z,6.00
2019-04-11T18:02:10.459Z,6.00
2019-04-11T18:04:43.721Z,7.58
2019-04-11T18:07:11.418Z,5.75
2019-04-11T18:09:40.695Z,5.90
2019-04-11T18:12:09.983Z,5.55
2019-04-11T18:14:39.289Z,6.08
2019-04-11T18:17:08.558Z,5.33
2019-04-11T18:19:38.634Z,6.65
2019-04-11T18:22:08.640Z,5.87
2019-04-11T18:24:38.911Z,5.58
2019-04-11T18:27:08.195Z,5.40
2019-04-11T18:29:37.504Z,6.05
2019-04-11T18:32:07.276Z,5.12
2019-04-11T18:34:36.555Z,5.62
2019-04-11T18:37:06.051Z,5.60
2019-04-11T18:39:35.907Z,5.45
2019-04-11T18:42:06.819Z,5.30
2019-04-11T18:44:36.102Z,5.80
2019-04-11T18:47:05.635Z,5.10
2019-04-11T18:49:34.910Z,5.53
2019-04-11T18:52:18.991Z,5.62
2019-04-11T18:54:40.253Z,5.28
2019-04-11T18:57:09.507Z,5.10
2019-04-11T18:59:38.802Z,5.20
2019-04-11T19:02:09.846Z,5.87
2019-04-11T19:04:42.039Z,6.00
2019-04-11T19:07:12.984Z,4.10
2019-04-11T19:09:43.693Z,5.30
2019-04-11T19:12:15.604Z,5.78
2019-04-11T19:14:46.087Z,5.65
2019-04-11T19:17:15.813Z,5.05
2019-04-11T19:19:48.670Z,5.55
2019-04-11T19:22:19.511Z,5.60
2019-04-11T19:24:47.899Z,5.40
2019-04-11T19:27:20.287Z,5.42
2019-04-11T19:29:48.561Z,5.55
2019-04-11T19:32:18.042Z,5.00
2019-04-11T19:34:47.323Z,5.05
2019-04-11T19:37:16.599Z,4.90
2019-04-11T19:39:45.999Z,6.12
2019-04-11T19:42:18.715Z,5.25
2019-04-11T19:44:49.382Z,5.30
2019-04-11T19:47:21.358Z,5.15
2019-04-11T19:49:48.430Z,5.05
2019-04-11T19:52:17.966Z,5.40
2019-04-11T19:54:47.252Z,5.25
2019-04-11T19:57:16.775Z,5.47
2019-04-11T19:59:46.421Z,5.37
2019-04-11T20:02:15.991Z,4.83
2019-04-11T20:04:46.712Z,6.20
2019-04-11T20:07:16.155Z,5.42
2019-04-11T20:09:45.422Z,5.80
2019-04-11T20:12:15.033Z,4.80
2019-04-11T20:14:44.294Z,5.60
2019-04-11T20:17:13.843Z,5.10
2019-04-11T20:19:43.120Z,4.30
2019-04-11T20:22:12.384Z,5.87
2019-04-11T20:24:45.761Z,5.58
2019-04-11T20:27:13.186Z,5.00
2019-04-11T20:29:42.567Z,5.43
2019-04-11T20:32:11.835Z,5.20
2019-04-11T20:34:41.123Z,5.45
2019-04-11T20:37:13.147Z,5.90
2019-04-11T20:39:41.363Z,4.42
2019-04-11T20:42:10.647Z,5.22
2019-04-11T20:44:39.936Z,5.40
2019-04-11T20:47:09.208Z,5.17
2019-04-11T20:49:40.131Z,5.00
2019-04-11T20:52:09.424Z,5.00
2019-04-11T20:54:39.187Z,4.87
2019-04-11T20:57:11.865Z,5.45
2019-04-11T20:59:42.346Z,5.25
2019-04-11T21:02:11.052Z,4.75
2019-04-11T21:04:40.374Z,4.90
2019-04-11T21:07:09.659Z,4.62
2019-04-11T21:09:38.949Z,4.55
2019-04-11T21:12:08.245Z,5.45
2019-04-11T21:14:37.500Z,5.10
2019-04-11T21:17:06.765Z,4.85
2019-04-11T21:19:36.048Z,4.90
2019-04-11T21:22:05.593Z,5.22
2019-04-11T21:24:34.851Z,4.55
2019-04-11T21:27:04.406Z,5.00
2019-04-11T21:29:33.686Z,5.55
2019-04-11T21:32:03.630Z,5.40
2019-04-11T21:34:32.967Z,5.17
2019-04-11T21:37:02.738Z,5.10
2019-04-11T21:39:32.100Z,5.17
2019-04-11T21:42:01.379Z,5.37
2019-04-11T21:44:30.935Z,4.67
2019-04-11T21:47:00.542Z,4.33
2019-04-11T21:49:29.819Z,4.42
2019-04-11T21:51:59.090Z,4.15
2019-04-11T21:54:28.363Z,4.83
2019-04-11T21:56:57.656Z,4.85
2019-04-11T21:59:26.920Z,4.40
2019-04-11T22:01:56.458Z,4.35
2019-04-11T22:04:27.398Z,5.10
2019-04-11T22:07:00.720Z,4.28
2019-04-11T22:09:27.670Z,4.62
2019-04-11T22:11:57.236Z,5.08
2019-04-11T22:14:26.843Z,5.25
2019-04-11T22:16:56.115Z,3.95
2019-04-11T22:19:25.394Z,5.20
2019-04-11T22:21:54.683Z,4.75
2019-04-11T22:24:23.942Z,4.60
2019-04-11T22:26:53.243Z,5.55
2019-04-11T22:29:24.795Z,4.95
2019-04-11T22:31:55.765Z,5.10
2019-04-11T22:37:09.077Z,4.92
2019-04-11T22:39:38.347Z,4.80
2019-04-11T22:42:07.712Z,5.17
2019-04-11T22:44:38.025Z,4.65
2019-04-11T22:47:08.602Z,4.17
2019-04-11T22:49:39.390Z,5.08
2019-04-11T22:52:11.346Z,4.47
2019-04-11T22:54:41.235Z,4.75
2019-04-11T22:57:12.171Z,4.65
2019-04-11T22:59:45.042Z,4.65
2019-04-11T23:02:26.910Z,4.58
2019-04-11T23:04:56.204Z,5.30
2019-04-11T23:07:25.691Z,4.42
2019-04-11T23:09:54.974Z,5.08
2019-04-11T23:12:24.261Z,4.70
2019-04-11T23:14:53.535Z,4.83
2019-04-11T23:17:23.089Z,4.90
2019-04-11T23:19:52.356Z,5.00
2019-04-11T23:22:21.635Z,4.45
2019-04-11T23:24:51.195Z,4.33
2019-04-11T23:27:20.473Z,4.75
2019-04-11T23:29:49.738Z,4.70
2019-04-11T23:32:21.211Z,4.83
2019-04-11T23:34:52.800Z,5.62
2019-04-11T23:37:21.753Z,5.90
2019-04-11T23:39:51.658Z,4.42
2019-04-11T23:42:21.070Z,5.40
2019-04-11T23:44:50.478Z,4.95
2019-04-11T23:47:23.039Z,4.45
2019-04-11T23:49:54.914Z,4.17
2019-04-11T23:52:26.385Z,5.62
2019-04-11T23:54:53.422Z,5.83
2019-04-11T23:57:22.711Z,4.45
2019-04-11T23:59:51.991Z,5.12
